Time;durP1;ratioP1;P1;durP2;ratioP2;P2;SDS_P1;SDS_P2;PMS_P1;PMS_P2;Temp;Humidity;BMP_temperature;BMP_pressure;BME280_temperature;BME280_humidity;BME280_pressure;Samples;Min_cycle;Max_cycle;Signal;HPM_P1;HPM_P2
2021/07/09 00:00:46;;;;;;;36.28;19.27;;;;;;;13.87;100.00;102205.50;5184887;28;20041;-84
2021/07/09 00:03:16;;;;;;;32.58;18.65;;;;;;;13.84;100.00;102204.94;5186822;28;20034;-84
2021/07/09 00:05:47;;;;;;;38.22;19.60;;;;;;;13.80;100.00;102200.88;5184565;28;20044;-84
2021/07/09 00:08:17;;;;;;;31.23;18.48;;;;;;;13.74;100.00;102197.78;5197418;28;20462;-84
2021/07/09 00:10:48;;;;;;;34.80;19.95;;;;;;;13.73;100.00;102197.94;5204633;28;20576;-84
2021/07/09 00:13:18;;;;;;;31.23;17.60;;;;;;;13.73;100.00;102189.84;5204777;28;20017;-84
2021/07/09 00:15:49;;;;;;;37.35;20.02;;;;;;;13.80;100.00;102180.13;5187189;28;20033;-84
2021/07/09 00:18:19;;;;;;;38.38;19.90;;;;;;;13.80;100.00;102176.59;5204639;28;20026;-84
2021/07/09 00:20:50;;;;;;;43.38;21.25;;;;;;;13.73;100.00;102182.59;5204664;28;20029;-84
2021/07/09 00:23:21;;;;;;;35.10;19.42;;;;;;;13.65;100.00;102190.59;5204149;28;20407;-84
2021/07/09 00:25:51;;;;;;;33.33;19.60;;;;;;;13.56;100.00;102202.34;5194556;28;20083;-84
2021/07/09 00:28:22;;;;;;;38.83;19.70;;;;;;;13.49;100.00;102190.44;5183636;28;20048;-85
2021/07/09 00:30:52;;;;;;;43.78;21.50;;;;;;;13.45;100.00;102205.22;5183789;28;20026;-84
2021/07/09 00:33:23;;;;;;;41.10;21.35;;;;;;;13.43;100.00;102209.94;5183966;28;20161;-85
2021/07/09 00:35:54;;;;;;;36.88;19.92;;;;;;;13.42;100.00;102201.00;5172911;28;20034;-84
2021/07/09 00:38:24;;;;;;;36.65;19.58;;;;;;;13.40;100.00;102199.44;5183612;28;20455;-84
2021/07/09 00:40:57;;;;;;;35.00;18.40;;;;;;;13.37;100.00;102194.38;5197225;28;20083;-84
2021/07/09 00:43:27;;;;;;;39.33;19.33;;;;;;;13.30;100.00;102194.13;5183623;28;20080;-84
2021/07/09 00:45:58;;;;;;;36.25;17.92;;;;;;;13.23;100.00;102200.28;5197175;28;20025;-85
2021/07/09 00:48:29;;;;;;;35.17;17.17;;;;;;;13.14;100.00;102200.13;5183784;28;20364;-84
2021/07/09 00:51:03;;;;;;;30.27;16.42;;;;;;;13.06;100.00;102191.13;5196200;28;20036;-84
2021/07/09 00:53:34;;;;;;;37.42;18.77;;;;;;;13.05;100.00;102206.44;5194198;28;20027;-84
2021/07/09 00:56:05;;;;;;;40.95;19.42;;;;;;;13.08;100.00;102200.75;5199123;28;20484;-84
2021/07/09 00:58:35;;;;;;;31.65;18.10;;;;;;;13.06;100.00;102202.75;5195704;28;20163;-84
2021/07/09 01:01:06;;;;;;;38.17;18.38;;;;;;;13.02;100.00;102206.75;5197440;28;20345;-84
2021/07/09 01:03:37;;;;;;;36.58;18.95;;;;;;;13.05;100.00;102206.44;5186851;28;20029;-84
2021/07/09 01:06:16;;;;;;;41.22;20.00;;;;;;;13.10;100.00;102204.16;5176856;28;20446;-84
2021/07/09 01:08:46;;;;;;;41.90;20.52;;;;;;;13.18;100.00;102206.09;5204187;28;20526;-84
2021/07/09 01:11:19;;;;;;;44.42;21.95;;;;;;;13.26;100.00;102198.13;5203369;28;20029;-84
2021/07/09 01:13:51;;;;;;;41.78;21.17;;;;;;;13.30;100.00;102201.34;5186160;28;20388;-84
2021/07/09 01:16:21;;;;;;;39.90;20.45;;;;;;;13.33;100.00;102201.91;5195671;28;20384;-84
2021/07/09 01:18:52;;;;;;;43.05;22.25;;;;;;;13.39;100.00;102198.59;5184350;28;20083;-84
2021/07/09 01:21:22;;;;;;;51.15;24.08;;;;;;;13.50;100.00;102199.38;5183225;28;20040;-84
2021/07/09 01:23:59;;;;;;;43.55;23.33;;;;;;;13.58;100.00;102202.19;5183207;28;20460;-85
2021/07/09 01:26:30;;;;;;;42.35;21.00;;;;;;;13.62;100.00;102193.63;5183170;28;20021;-84
2021/07/09 01:29:02;;;;;;;46.88;22.05;;;;;;;13.70;100.00;102190.16;5183023;28;20079;-84
2021/07/09 01:31:34;;;;;;;38.30;20.75;;;;;;;13.69;100.00;102192.00;5165537;28;20500;-85
2021/07/09 01:34:05;;;;;;;38.97;21.15;;;;;;;13.67;100.00;102179.69;5183163;28;20022;-84
2021/07/09 01:36:35;;;;;;;44.10;22.70;;;;;;;13.63;100.00;102195.31;5182836;28;20105;-84
2021/07/09 01:39:06;;;;;;;43.08;21.83;;;;;;;13.64;100.00;102197.00;5182499;28;20175;-85
2021/07/09 01:41:37;;;;;;;48.97;23.35;;;;;;;13.63;100.00;102197.16;5182576;28;20033;-85
2021/07/09 01:44:08;;;;;;;42.63;19.70;;;;;;;13.67;100.00;102187.78;5182879;28;20493;-85
2021/07/09 01:46:40;;;;;;;37.33;19.83;;;;;;;13.76;100.00;102178.78;5182551;28;20025;-84
2021/07/09 01:49:11;;;;;;;40.00;21.85;;;;;;;13.77;100.00;102190.41;5165476;28;20058;-84
2021/07/09 01:51:42;;;;;;;42.92;21.10;;;;;;;13.71;100.00;102181.94;5164768;28;20116;-85
2021/07/09 01:54:17;;;;;;;37.83;19.83;;;;;;;13.62;100.00;102190.09;5183605;28;20017;-84
2021/07/09 01:56:47;;;;;;;42.88;20.92;;;;;;;13.58;100.00;102180.59;5182496;28;20034;-85
2021/07/09 01:59:18;;;;;;;34.65;19.05;;;;;;;13.58;100.00;102189.53;5178003;28;20040;-84
2021/07/09 02:01:48;;;;;;;37.38;20.45;;;;;;;13.60;100.00;102183.97;5182743;28;20064;-84
2021/07/09 02:04:19;;;;;;;43.55;21.77;;;;;;;13.61;100.00;102178.47;5184149;28;20034;-84
2021/07/09 02:06:50;;;;;;;48.55;22.17;;;;;;;13.68;100.00;102176.81;5184497;28;20040;-85
2021/07/09 02:09:20;;;;;;;39.08;19.83;;;;;;;13.72;100.00;102178.22;5182383;28;20025;-85
2021/07/09 02:11:52;;;;;;;37.38;20.75;;;;;;;13.72;100.00;102178.22;5195187;28;20108;-84
2021/07/09 02:14:22;;;;;;;41.50;20.92;;;;;;;13.76;100.00;102186.03;5182279;28;20105;-85
2021/07/09 02:16:53;;;;;;;40.42;20.35;;;;;;;13.80;100.00;102182.81;5182292;28;20038;-84
2021/07/09 02:19:23;;;;;;;41.35;19.67;;;;;;;13.88;100.00;102191.00;5182953;28;20036;-84
2021/07/09 02:22:00;;;;;;;45.33;19.30;;;;;;;14.01;100.00;102185.22;5182397;28;20054;-84
2021/07/09 02:24:32;;;;;;;40.95;19.73;;;;;;;14.06;100.00;102182.06;5169261;28;20022;-85
2021/07/09 02:27:04;;;;;;;46.20;20.38;;;;;;;14.10;100.00;102181.56;5186193;28;20454;-85
2021/07/09 02:29:35;;;;;;;46.72;20.90;;;;;;;14.15;100.00;102195.44;5186265;28;20034;-85
2021/07/09 02:32:09;;;;;;;46.70;21.45;;;;;;;14.20;100.00;102181.47;5186366;28;20104;-85
2021/07/09 02:34:41;;;;;;;39.60;21.45;;;;;;;14.25;100.00;102193.47;5165306;28;20018;-84
2021/07/09 02:37:11;;;;;;;43.60;19.85;;;;;;;14.29;100.00;102188.63;5186279;28;20511;-85
2021/07/09 02:39:42;;;;;;;39.65;18.92;;;;;;;14.30;100.00;102184.91;5190238;28;20033;-85
2021/07/09 02:42:12;;;;;;;35.33;20.52;;;;;;;14.30;100.00;102192.16;5195138;28;20026;-85
2021/07/09 02:44:43;;;;;;;35.63;18.73;;;;;;;14.27;100.00;102189.81;5186027;28;20135;-85
2021/07/09 02:47:13;;;;;;;35.22;17.75;;;;;;;14.20;100.00;102187.72;5186429;28;20054;-85
2021/07/09 02:49:44;;;;;;;38.25;19.13;;;;;;;14.15;100.00;102189.19;5174735;28;20025;-85
2021/07/09 02:52:14;;;;;;;37.00;19.50;;;;;;;14.08;100.00;102178.19;5191717;28;20026;-85
2021/07/09 02:54:45;;;;;;;37.53;18.48;;;;;;;14.05;100.00;102177.63;5184790;28;20507;-85
2021/07/09 02:57:16;;;;;;;39.03;18.70;;;;;;;14.02;100.00;102183.38;5168251;28;20061;-85
2021/07/09 02:59:46;;;;;;;34.63;17.73;;;;;;;13.98;100.00;102180.97;5186522;28;20026;-85
2021/07/09 03:02:16;;;;;;;42.83;20.45;;;;;;;13.96;100.00;102184.84;5188039;28;20451;-85
2021/07/09 03:04:47;;;;;;;34.38;18.70;;;;;;;13.92;100.00;102188.84;5185940;28;20025;-85
2021/07/09 03:07:17;;;;;;;37.20;18.20;;;;;;;13.87;100.00;102180.38;5190217;28;20068;-85
2021/07/09 03:09:48;;;;;;;36.65;17.85;;;;;;;13.80;100.00;102177.44;5206374;28;20048;-85
2021/07/09 03:12:18;;;;;;;33.60;17.80;;;;;;;13.73;100.00;102174.50;5186453;28;20121;-85
2021/07/09 03:14:49;;;;;;;41.47;18.90;;;;;;;13.66;100.00;102169.91;5198830;28;20113;-85
2021/07/09 03:17:19;;;;;;;36.40;18.38;;;;;;;13.62;100.00;102176.59;5185664;28;20512;-85
2021/07/09 03:19:50;;;;;;;37.70;17.77;;;;;;;13.53;100.00;102175.66;5184832;28;20053;-85
2021/07/09 03:22:20;;;;;;;38.58;19.02;;;;;;;13.45;100.00;102183.66;5185298;28;20373;-85
2021/07/09 03:24:51;;;;;;;39.92;19.42;;;;;;;13.39;100.00;102185.13;5184212;28;20061;-85
2021/07/09 03:27:21;;;;;;;34.78;18.45;;;;;;;13.32;100.00;102177.81;5184132;28;20427;-85
2021/07/09 03:29:52;;;;;;;35.88;17.02;;;;;;;13.21;100.00;102185.13;5183345;28;20149;-85
2021/07/09 03:32:22;;;;;;;38.03;18.30;;;;;;;13.14;100.00;102189.34;5184297;28;20045;-85
2021/07/09 03:34:52;;;;;;;37.78;18.23;;;;;;;13.15;100.00;102176.72;5184092;28;20030;-86
2021/07/09 03:37:23;;;;;;;46.70;20.48;;;;;;;13.19;100.00;102184.38;5184852;28;20094;-85
2021/07/09 03:39:53;;;;;;;47.72;20.50;;;;;;;13.25;100.00;102190.19;5182356;28;20464;-85
2021/07/09 03:42:24;;;;;;;40.92;19.80;;;;;;;13.21;100.00;102189.63;5183988;28;20111;-86
2021/07/09 03:44:54;;;;;;;46.45;19.75;;;;;;;13.18;100.00;102193.47;5183707;28;20036;-85
2021/07/09 03:47:25;;;;;;;50.83;20.33;;;;;;;13.21;100.00;102195.91;5184084;28;20053;-85
2021/07/09 03:49:55;;;;;;;51.08;21.13;;;;;;;13.29;100.00;102199.66;5182599;28;20729;-86
2021/07/09 03:52:26;;;;;;;58.20;20.40;;;;;;;13.37;100.00;102199.78;5183476;28;20029;-86
2021/07/09 03:54:56;;;;;;;50.92;22.52;;;;;;;13.48;100.00;102213.88;5183559;28;20026;-85
2021/07/09 03:57:27;;;;;;;55.30;22.48;;;;;;;13.58;100.00;102219.19;5187923;28;20039;-86
2021/07/09 03:59:57;;;;;;;44.40;21.80;;;;;;;13.65;100.00;102227.53;5202608;28;20030;-86
2021/07/09 04:02:27;;;;;;;50.58;21.55;;;;;;;13.73;100.00;102219.53;5199045;28;20026;-86
2021/07/09 04:04:58;;;;;;;46.55;21.98;;;;;;;13.80;100.00;102217.88;5161364;28;20033;-86
2021/07/09 04:07:28;;;;;;;45.53;21.45;;;;;;;13.87;100.00;102220.84;5190446;28;20028;-85
2021/07/09 04:09:59;;;;;;;50.78;23.73;;;;;;;13.93;100.00;102217.53;5202734;28;20067;-86
2021/07/09 04:12:29;;;;;;;46.00;21.65;;;;;;;13.97;100.00;102217.06;5196532;28;20601;-86
2021/07/09 04:15:00;;;;;;;48.50;21.13;;;;;;;14.04;100.00;102225.38;5184356;28;20021;-85
2021/07/09 04:17:30;;;;;;;50.42;22.17;;;;;;;14.10;100.00;102221.19;5203706;28;20017;-86
2021/07/09 04:20:01;;;;;;;47.13;21.17;;;;;;;14.14;100.00;102212.63;5186915;28;20428;-86
2021/07/09 04:22:31;;;;;;;44.50;20.50;;;;;;;14.20;100.00;102220.09;5183217;28;20029;-86
2021/07/09 04:25:04;;;;;;;50.08;20.80;;;;;;;14.24;100.00;102217.94;5182882;28;20030;-86
2021/07/09 04:27:36;;;;;;;49.40;21.02;;;;;;;14.31;100.00;102215.44;5194584;28;20029;-86
2021/07/09 04:30:09;;;;;;;55.15;21.83;;;;;;;14.43;100.00;102208.81;5201498;28;20033;-86
2021/07/09 04:32:39;;;;;;;42.92;20.15;;;;;;;14.43;100.00;102206.09;5203479;28;20041;-86
2021/07/09 04:35:10;;;;;;;47.40;18.90;;;;;;;14.53;100.00;102214.97;5166053;28;20053;-87
2021/07/09 04:37:41;;;;;;;42.20;19.77;;;;;;;14.53;100.00;102214.13;5193567;28;20067;-86
2021/07/09 04:40:12;;;;;;;44.92;18.77;;;;;;;14.46;100.00;102203.94;5186417;28;20235;-87
2021/07/09 04:42:45;;;;;;;44.28;18.05;;;;;;;14.48;100.00;102206.50;5195657;28;20029;-85
2021/07/09 04:45:15;;;;;;;39.58;17.88;;;;;;;14.47;100.00;102210.19;5181694;28;20030;-86
2021/07/09 04:47:46;;;;;;;43.47;18.85;;;;;;;14.50;100.00;102218.81;5165118;28;20037;-87
2021/07/09 04:50:16;;;;;;;38.00;17.23;;;;;;;14.52;100.00;102216.00;5191739;28;20025;-86
2021/07/09 04:52:47;;;;;;;39.35;16.83;;;;;;;14.57;100.00;102226.31;5197613;28;20052;-85
2021/07/09 04:55:17;;;;;;;41.53;17.75;;;;;;;14.64;100.00;102221.97;5185093;28;20064;-86
2021/07/09 04:57:48;;;;;;;43.65;17.33;;;;;;;14.69;100.00;102225.88;5195006;28;20037;-86
2021/07/09 05:00:19;;;;;;;33.50;15.98;;;;;;;14.70;100.00;102226.72;5163260;28;20567;-86
2021/07/09 05:02:49;;;;;;;36.78;16.55;;;;;;;14.69;100.00;102223.16;5201860;28;20484;-85
2021/07/09 05:05:20;;;;;;;44.85;17.65;;;;;;;14.74;100.00;102222.69;5197838;28;20049;-87
2021/07/09 05:07:50;;;;;;;38.88;17.15;;;;;;;14.76;100.00;102220.69;5191642;28;20087;-85
2021/07/09 05:10:21;;;;;;;34.85;16.25;;;;;;;14.81;100.00;102229.16;5184794;28;20027;-86
2021/07/09 05:12:51;;;;;;;38.30;17.45;;;;;;;14.86;100.00;102228.66;5164373;28;20032;-86
2021/07/09 05:15:22;;;;;;;41.10;17.90;;;;;;;14.90;100.00;102230.03;5164816;28;20589;-86
2021/07/09 05:17:52;;;;;;;40.90;18.50;;;;;;;14.95;100.00;102231.25;5182266;28;20540;-85
2021/07/09 05:20:23;;;;;;;47.75;17.13;;;;;;;14.99;100.00;102229.06;5180837;28;20033;-86
2021/07/09 05:22:54;;;;;;;34.63;17.58;;;;;;;15.07;100.00;102233.69;5183059;28;20033;-85
2021/07/09 05:25:24;;;;;;;44.10;17.73;;;;;;;15.17;100.00;102232.53;5183079;28;20029;-86
2021/07/09 05:27:54;;;;;;;44.55;18.00;;;;;;;15.26;100.00;102238.81;5178568;28;20030;-85
2021/07/09 05:30:25;;;;;;;40.60;17.77;;;;;;;15.36;100.00;102227.84;5204586;28;20014;-85
2021/07/09 05:32:56;;;;;;;39.88;16.92;;;;;;;15.42;100.00;102232.63;5181624;28;20395;-85
2021/07/09 05:35:26;;;;;;;43.97;17.20;;;;;;;15.42;100.00;102232.63;5164709;28;20236;-85
2021/07/09 05:37:57;;;;;;;44.65;17.90;;;;;;;15.58;100.00;102234.53;5181990;28;20026;-84
2021/07/09 05:40:27;;;;;;;41.67;17.63;;;;;;;15.66;100.00;102232.72;5162846;28;20052;-85
2021/07/09 05:43:01;;;;;;;41.03;17.35;;;;;;;15.72;100.00;102236.63;5147031;28;20045;-84
2021/07/09 05:45:31;;;;;;;35.92;16.55;;;;;;;15.82;100.00;102241.88;5176655;28;20056;-84
2021/07/09 05:48:02;;;;;;;41.22;17.67;;;;;;;15.86;100.00;102235.09;5201885;28;20021;-86
2021/07/09 05:50:33;;;;;;;34.17;16.38;;;;;;;15.84;100.00;102234.44;5173329;28;20034;-86
2021/07/09 05:53:03;;;;;;;36.88;18.50;;;;;;;15.77;100.00;102237.81;5178032;28;20021;-84
2021/07/09 05:55:34;;;;;;;50.05;20.40;;;;;;;15.80;100.00;102242.03;5180012;28;20383;-84
2021/07/09 05:58:05;;;;;;;51.45;21.80;;;;;;;15.74;100.00;102234.59;5188721;28;20117;-84
2021/07/09 06:00:38;;;;;;;49.45;21.48;;;;;;;15.74;100.00;102243.56;5177603;28;20030;-84
2021/07/09 06:03:09;;;;;;;51.00;22.98;;;;;;;15.79;100.00;102248.47;5179984;28;20121;-85
2021/07/09 06:05:39;;;;;;;54.78;22.60;;;;;;;15.75;100.00;102238.97;5167969;28;20112;-84
2021/07/09 06:08:10;;;;;;;56.83;22.83;;;;;;;15.94;100.00;102238.66;5199541;28;20037;-83
2021/07/09 06:10:41;;;;;;;50.95;21.65;;;;;;;16.06;100.00;102228.34;5198006;28;20029;-84
2021/07/09 06:13:11;;;;;;;50.63;20.30;;;;;;;16.37;100.00;102217.69;5181647;28;20373;-85
2021/07/09 06:15:42;;;;;;;46.28;19.75;;;;;;;16.55;100.00;102221.03;5200011;28;20036;-85
2021/07/09 06:18:12;;;;;;;41.53;19.55;;;;;;;16.67;100.00;102228.81;5181313;28;20029;-86
2021/07/09 06:20:42;;;;;;;39.58;18.73;;;;;;;16.82;100.00;102233.38;5180820;28;20304;-85
2021/07/09 06:23:14;;;;;;;42.25;19.33;;;;;;;16.98;100.00;102235.19;5198722;28;20032;-85
2021/07/09 06:25:44;;;;;;;41.67;18.80;;;;;;;17.03;100.00;102237.38;5190701;28;20555;-87
2021/07/09 06:28:15;;;;;;;41.97;18.13;;;;;;;17.15;100.00;102238.69;5178664;28;20026;-87
2021/07/09 06:30:45;;;;;;;38.53;18.30;;;;;;;17.31;100.00;102232.34;5177604;28;20026;-85
2021/07/09 06:33:16;;;;;;;40.97;18.10;;;;;;;17.49;100.00;102232.94;5192115;28;20069;-86
2021/07/09 06:35:47;;;;;;;34.15;17.00;;;;;;;17.59;100.00;102244.41;5191126;28;20029;-85
2021/07/09 06:38:17;;;;;;;33.47;16.95;;;;;;;18.30;100.00;102233.38;5180485;28;20022;-89
2021/07/09 06:40:48;;;;;;;37.67;16.63;;;;;;;19.10;100.00;102238.16;5190830;28;20400;-84
2021/07/09 06:43:18;;;;;;;29.02;14.65;;;;;;;19.34;100.00;102239.75;5167623;28;20370;-83
2021/07/09 06:45:49;;;;;;;30.00;14.60;;;;;;;19.28;100.00;102241.34;5199290;28;20503;-85
2021/07/09 06:48:19;;;;;;;27.50;14.45;;;;;;;19.27;100.00;102239.63;5173785;28;20026;-84
2021/07/09 06:50:49;;;;;;;29.33;13.82;;;;;;;19.75;100.00;102250.91;5179498;28;20136;-86
2021/07/09 06:53:20;;;;;;;25.48;13.30;;;;;;;19.45;100.00;102243.84;5189879;28;20029;-86
2021/07/09 06:55:50;;;;;;;27.85;13.95;;;;;;;19.49;100.00;102240.56;5178601;28;20512;-87
2021/07/09 06:58:21;;;;;;;29.80;13.93;;;;;;;19.53;100.00;102246.44;5189225;28;20600;-87
2021/07/09 07:00:51;;;;;;;29.27;14.07;;;;;;;19.29;100.00;102234.88;5180291;28;20042;-88
2021/07/09 07:03:22;;;;;;;27.50;14.02;;;;;;;19.03;100.00;102248.13;5180845;28;20065;-86
2021/07/09 07:05:52;;;;;;;28.35;13.70;;;;;;;19.00;100.00;102256.66;5187051;28;20499;-87
2021/07/09 07:08:23;;;;;;;28.13;12.85;;;;;;;19.12;100.00;102247.81;5181709;28;20451;-86
2021/07/09 07:10:55;;;;;;;25.50;12.45;;;;;;;19.51;100.00;102253.97;5171339;28;20033;-85
2021/07/09 07:13:26;;;;;;;26.50;12.98;;;;;;;19.67;100.00;102251.03;5189494;28;20080;-87
2021/07/09 07:15:56;;;;;;;32.95;13.88;;;;;;;19.80;100.00;102248.47;5195305;28;20029;-88
2021/07/09 07:18:27;;;;;;;22.77;11.40;;;;;;;19.87;100.00;102248.53;5196382;28;20046;-85
2021/07/09 07:20:57;;;;;;;31.98;13.70;;;;;;;19.33;100.00;102252.50;5191391;28;20039;-84
2021/07/09 07:23:28;;;;;;;30.00;12.57;;;;;;;19.33;100.00;102247.06;5186139;28;20025;-86
2021/07/09 07:25:58;;;;;;;25.00;12.05;;;;;;;19.05;100.00;102252.34;5176355;28;20154;-85
2021/07/09 07:28:29;;;;;;;23.35;11.45;;;;;;;19.31;100.00;102246.38;5190253;28;20415;-85
2021/07/09 07:31:00;;;;;;;25.33;12.50;;;;;;;19.85;100.00;102247.88;5189847;28;20091;-87
2021/07/09 07:33:30;;;;;;;26.33;12.20;;;;;;;19.80;100.00;102245.75;5195715;28;20113;-85
2021/07/09 07:36:01;;;;;;;23.25;12.70;;;;;;;19.76;100.00;102247.16;5182924;28;20215;-87
2021/07/09 07:38:31;;;;;;;24.85;12.05;;;;;;;19.71;100.00;102255.06;5196184;28;20451;-88
2021/07/09 07:41:02;;;;;;;29.00;13.23;;;;;;;19.82;100.00;102251.81;5181864;28;20030;-86
2021/07/09 07:43:32;;;;;;;26.48;12.90;;;;;;;20.00;100.00;102254.09;5176274;28;20068;-84
2021/07/09 07:46:03;;;;;;;24.80;11.80;;;;;;;20.08;100.00;102259.44;5196216;28;20040;-85
2021/07/09 07:48:34;;;;;;;30.10;12.35;;;;;;;20.09;100.00;102254.84;5192412;28;20087;-85
2021/07/09 07:51:04;;;;;;;20.58;11.18;;;;;;;20.24;100.00;102257.47;5188213;28;20061;-86
2021/07/09 07:53:36;;;;;;;23.23;10.77;;;;;;;20.23;100.00;102259.38;5191931;28;20032;-84
2021/07/09 07:56:07;;;;;;;19.98;11.50;;;;;;;20.36;100.00;102256.75;5183344;28;20026;-85
2021/07/09 07:58:38;;;;;;;21.55;10.23;;;;;;;20.49;100.00;102257.94;5195071;28;20151;-86
2021/07/09 08:01:08;;;;;;;26.05;12.68;;;;;;;20.34;100.00;102250.66;5170362;28;20506;-85
2021/07/09 08:03:39;;;;;;;23.05;10.93;;;;;;;20.09;100.00;102250.22;5190995;28;20036;-85
2021/07/09 08:06:10;;;;;;;23.92;12.30;;;;;;;19.80;100.00;102251.19;5174801;28;20038;-84
2021/07/09 08:08:41;;;;;;;26.60;12.95;;;;;;;19.83;100.00;102247.22;5177785;28;20264;-83
2021/07/09 08:11:11;;;;;;;21.38;11.00;;;;;;;20.12;100.00;102249.81;5190319;28;20104;-85
2021/07/09 08:13:42;;;;;;;21.73;11.70;;;;;;;20.30;100.00;102238.47;5188550;28;20503;-86
2021/07/09 08:16:12;;;;;;;23.83;12.38;;;;;;;20.72;100.00;102244.03;5191615;28;20044;-85
2021/07/09 08:18:43;;;;;;;25.65;12.27;;;;;;;20.98;100.00;102243.34;5169466;28;20056;-84
2021/07/09 08:21:13;;;;;;;19.80;11.73;;;;;;;20.96;100.00;102243.56;5187590;28;20037;-85
2021/07/09 08:23:44;;;;;;;25.48;11.52;;;;;;;21.64;100.00;102247.25;5177077;28;20040;-84
2021/07/09 08:26:14;;;;;;;18.42;11.18;;;;;;;21.61;100.00;102244.91;5194723;28;20555;-84
2021/07/09 08:28:45;;;;;;;21.02;11.38;;;;;;;21.64;100.00;102251.88;5182340;28;20030;-84
2021/07/09 08:31:15;;;;;;;22.83;11.80;;;;;;;21.62;100.00;102241.13;5193324;28;20025;-84
2021/07/09 08:33:46;;;;;;;23.77;10.68;;;;;;;21.76;100.00;102232.97;5171133;28;20491;-83
2021/07/09 08:36:16;;;;;;;23.20;10.75;;;;;;;22.12;100.00;102241.66;5171201;28;20038;-84
2021/07/09 08:38:47;;;;;;;14.63;8.75;;;;;;;22.05;100.00;102238.06;5193016;28;20072;-85
2021/07/09 08:41:17;;;;;;;21.98;10.07;;;;;;;21.78;100.00;102234.44;5175198;28;20117;-85
2021/07/09 08:43:49;;;;;;;18.38;9.35;;;;;;;21.84;100.00;102235.50;5191110;28;20072;-84
2021/07/09 08:46:21;;;;;;;14.77;8.75;;;;;;;21.53;100.00;102238.78;5166132;28;20045;-84
2021/07/09 08:48:51;;;;;;;15.45;8.27;;;;;;;21.67;100.00;102235.06;5193232;28;20518;-84
2021/07/09 08:51:22;;;;;;;22.30;8.35;;;;;;;21.45;100.00;102248.03;5176757;28;20021;-87
2021/07/09 08:53:52;;;;;;;10.75;7.20;;;;;;;21.48;100.00;102238.56;5146441;28;20026;-87
2021/07/09 08:56:23;;;;;;;21.77;7.82;;;;;;;21.85;100.00;102226.28;5162355;28;20030;-85
2021/07/09 08:58:53;;;;;;;18.25;8.15;;;;;;;22.13;100.00;102231.56;5176429;28;20061;-85
2021/07/09 09:01:24;;;;;;;12.48;5.95;;;;;;;22.43;100.00;102230.09;5150383;28;20057;-84
2021/07/09 09:04:04;;;;;;;15.27;7.00;;;;;;;22.17;100.00;102235.59;5196443;28;20032;-81
2021/07/09 09:06:36;;;;;;;12.52;7.07;;;;;;;21.99;100.00;102233.44;5162820;28;20038;-82
2021/07/09 09:09:15;;;;;;;15.07;7.40;;;;;;;21.76;100.00;102225.63;5193189;28;20497;-83
2021/07/09 09:11:59;;;;;;;12.27;6.78;;;;;;;21.56;100.00;102228.31;5193532;28;20035;-84
2021/07/09 09:14:32;;;;;;;11.05;6.82;;;;;;;21.81;100.00;102228.56;5172925;28;20021;-83
2021/07/09 09:17:24;;;;;;;15.88;6.97;;;;;;;21.97;100.00;102224.59;5187916;28;20040;-84
2021/07/09 09:20:13;;;;;;;13.88;6.25;;;;;;;22.17;100.00;102224.66;5169428;28;20373;-84
2021/07/09 09:22:47;;;;;;;13.55;6.80;;;;;;;22.32;100.00;102221.69;5181867;28;20444;-84
2021/07/09 09:25:20;;;;;;;12.03;5.77;;;;;;;22.47;100.00;102220.44;5192705;28;20025;-83
2021/07/09 09:28:02;;;;;;;9.27;6.25;;;;;;;22.57;100.00;102221.88;5175980;28;20394;-83
2021/07/09 09:30:34;;;;;;;12.60;6.22;;;;;;;23.02;100.00;102217.38;5144943;28;20049;-83
2021/07/09 09:33:08;;;;;;;12.88;7.38;;;;;;;23.65;100.00;102219.44;5165273;28;20025;-84
2021/07/09 09:35:42;;;;;;;12.30;6.60;;;;;;;23.57;100.00;102230.63;5172395;28;20227;-83
2021/07/09 09:38:15;;;;;;;9.77;6.40;;;;;;;23.75;100.00;102225.28;5192829;28;20030;-84
2021/07/09 09:40:46;;;;;;;14.88;6.90;;;;;;;23.34;100.00;102220.19;5192156;28;20041;-83
2021/07/09 09:43:20;;;;;;;12.02;6.68;;;;;;;23.38;100.00;102222.28;5186539;28;20300;-84
2021/07/09 09:46:08;;;;;;;15.85;7.20;;;;;;;23.90;100.00;102220.34;5169521;28;20120;-85
2021/07/09 09:48:45;;;;;;;13.25;7.22;;;;;;;23.50;100.00;102226.03;5171578;28;20041;-83
2021/07/09 09:51:26;;;;;;;15.48;7.78;;;;;;;22.86;100.00;102212.38;5174136;28;20029;-82
2021/07/09 09:54:00;;;;;;;12.65;7.85;;;;;;;23.27;100.00;102217.50;5191950;28;20053;-84
2021/07/09 09:56:34;;;;;;;13.40;7.90;;;;;;;23.73;100.00;102224.66;5182437;28;20168;-84
2021/07/09 09:59:20;;;;;;;17.52;9.52;;;;;;;23.71;100.00;102218.56;5178476;28;20492;-84
2021/07/09 10:01:52;;;;;;;15.00;8.60;;;;;;;23.48;100.00;102222.66;5192984;28;20052;-84
2021/07/09 10:04:25;;;;;;;17.08;8.88;;;;;;;22.94;100.00;102215.75;5192166;28;20041;-85
2021/07/09 10:06:56;;;;;;;18.50;10.45;;;;;;;22.80;100.00;102202.28;5181214;28;20050;-85
2021/07/09 10:09:28;;;;;;;12.43;9.23;;;;;;;23.00;100.00;102209.41;5172013;28;20072;-84
2021/07/09 10:12:03;;;;;;;14.55;9.02;;;;;;;23.34;100.00;102212.81;5192850;28;20378;-84
2021/07/09 10:14:39;;;;;;;13.35;8.00;;;;;;;23.80;100.00;102210.91;5190377;28;20032;-85
2021/07/09 10:17:10;;;;;;;13.43;8.65;;;;;;;23.32;93.86;102214.94;5187166;28;20116;-84
2021/07/09 10:19:42;;;;;;;15.30;8.10;;;;;;;23.44;100.00;102213.19;5187869;28;20113;-84
2021/07/09 10:22:13;;;;;;;15.25;7.97;;;;;;;22.94;100.00;102209.41;5170057;28;20053;-88
2021/07/09 10:24:46;;;;;;;11.35;7.22;;;;;;;22.80;100.00;102211.34;5168085;28;20030;-86
2021/07/09 10:27:22;;;;;;;13.50;7.45;;;;;;;22.59;100.00;102206.97;5173922;28;20504;-86
2021/07/09 10:29:54;;;;;;;13.43;8.15;;;;;;;23.36;100.00;102210.72;5192038;28;20109;-89
2021/07/09 10:32:32;;;;;;;10.90;6.95;;;;;;;23.59;100.00;102214.78;5189741;28;20036;-84
2021/07/09 10:35:04;;;;;;;10.35;6.53;;;;;;;23.86;98.90;102208.13;5186075;28;20104;-84
2021/07/09 10:37:35;;;;;;;11.25;7.32;;;;;;;23.82;100.00;102212.38;5186609;28;20030;-84
2021/07/09 10:40:07;;;;;;;12.35;6.88;;;;;;;23.81;88.42;102207.13;5191212;28;20392;-83
2021/07/09 10:42:40;;;;;;;11.07;6.57;;;;;;;23.20;88.33;102213.97;5163311;28;20038;-83
2021/07/09 10:45:11;;;;;;;11.77;6.60;;;;;;;23.16;100.00;102218.19;5194145;28;20033;-83
2021/07/09 10:48:09;;;;;;;9.02;6.30;;;;;;;22.82;100.00;102205.63;5196448;28;20032;-82
2021/07/09 10:50:51;;;;;;;9.75;6.05;;;;;;;22.98;100.00;102214.22;5177479;28;20061;-83
2021/07/09 10:53:25;;;;;;;10.82;6.22;;;;;;;23.07;100.00;102214.84;5182814;28;20506;-83
2021/07/09 10:56:08;;;;;;;9.77;5.78;;;;;;;22.59;100.00;102212.44;5196181;28;20025;-83
2021/07/09 10:58:45;;;;;;;9.60;6.28;;;;;;;22.60;100.00;102221.47;5196572;28;20072;-83
2021/07/09 11:01:18;;;;;;;10.95;5.78;;;;;;;22.38;100.00;102224.44;5182573;28;20022;-84
2021/07/09 11:03:57;;;;;;;9.80;5.95;;;;;;;22.24;100.00;102209.09;5197229;28;20345;-82
2021/07/09 11:06:33;;;;;;;11.20;5.60;;;;;;;22.00;100.00;102224.19;5183579;28;20029;-83
2021/07/09 11:09:08;;;;;;;11.25;6.20;;;;;;;21.87;100.00;102233.19;5195411;28;20160;-83
2021/07/09 11:11:40;;;;;;;;;;;;;;;21.89;100.00;102222.94;5196567;28;20029;-83
2021/07/09 11:14:14;;;;;;;10.88;5.63;;;;;;;22.13;100.00;102226.94;5164730;28;19917;-82
2021/07/09 11:16:48;;;;;;;9.98;5.72;;;;;;;22.57;100.00;102222.72;5196050;28;20079;-84
2021/07/09 11:19:22;;;;;;;10.43;6.30;;;;;;;22.85;100.00;102227.94;5174660;28;20030;-86
2021/07/09 11:21:56;;;;;;;10.93;5.88;;;;;;;22.94;100.00;102221.22;5172457;28;20037;-84
2021/07/09 11:24:29;;;;;;;13.30;6.05;;;;;;;22.77;100.00;102227.31;5171769;28;20056;-83